Time;durP1;ratioP1;P1;durP2;ratioP2;P2;SDS_P1;SDS_P2;PMS_P1;PMS_P2;Temp;Humidity;BMP_temperature;BMP_pressure;BME280_temperature;BME280_humidity;BME280_pressure;Samples;Min_cycle;Max_cycle;Signal;HPM_P1;HPM_P2
2024/02/04 00:00:28;;;;;;;205.68;67.32;;;;;;;5.78;69.67;99735.44;5081965;28;20512;-75
2024/02/04 00:02:53;;;;;;;300.58;101.70;;;;;;;5.85;69.71;99747.03;5092056;28;20077;-75
2024/02/04 00:05:19;;;;;;;286.15;97.38;;;;;;;5.79;69.78;99748.22;5096503;28;20066;-75
2024/02/04 00:07:45;;;;;;;244.43;88.50;;;;;;;5.91;69.56;99745.84;5114923;28;20433;-75
2024/02/04 00:10:11;;;;;;;255.02;87.68;;;;;;;5.93;69.74;99754.72;5096348;28;20080;-75
2024/02/04 00:12:37;;;;;;;204.77;76.25;;;;;;;5.99;69.74;99758.25;5096741;28;20073;-75
2024/02/04 00:15:06;;;;;;;194.25;64.85;;;;;;;6.01;69.42;99756.00;5107122;28;20534;-75
2024/02/04 00:17:33;;;;;;;206.07;72.57;;;;;;;6.09;69.18;99765.66;5076219;28;20023;-75
2024/02/04 00:20:05;;;;;;;264.67;95.53;;;;;;;6.02;69.47;99760.47;5082469;28;20032;-75
2024/02/04 00:22:31;;;;;;;282.92;96.28;;;;;;;6.05;69.06;99751.53;5096682;28;20035;-75
2024/02/04 00:25:01;;;;;;;293.02;96.70;;;;;;;6.02;69.59;99766.03;5114762;28;20031;-75
2024/02/04 00:27:27;;;;;;;198.43;70.20;;;;;;;5.87;69.79;99739.22;5094580;28;20078;-75
2024/02/04 00:29:52;;;;;;;84.15;30.27;;;;;;;5.62;71.00;99743.97;5096175;28;20058;-75
2024/02/04 00:32:19;;;;;;;74.43;29.77;;;;;;;5.67;70.79;99762.50;5114458;28;20035;-75
2024/02/04 00:34:44;;;;;;;45.83;18.70;;;;;;;5.51;71.33;99767.41;5113958;28;20091;-74
2024/02/04 00:37:10;;;;;;;22.15;9.93;;;;;;;5.29;72.10;99769.56;5095659;28;20023;-75
2024/02/04 00:39:35;;;;;;;16.92;9.13;;;;;;;4.97;71.72;99761.81;5113053;28;20118;-75
2024/02/04 00:42:03;;;;;;;12.82;7.10;;;;;;;4.94;72.07;99784.56;5091788;28;20024;-74
2024/02/04 00:44:29;;;;;;;11.25;6.07;;;;;;;4.76;72.94;99773.06;5095687;28;20492;-75
2024/02/04 00:46:54;;;;;;;10.73;6.47;;;;;;;4.86;73.01;99778.53;5113030;28;20034;-75
2024/02/04 00:49:20;;;;;;;12.57;6.65;;;;;;;5.02;72.57;99789.50;5095513;28;20030;-75
2024/02/04 00:51:45;;;;;;;10.38;6.13;;;;;;;4.90;72.23;99792.66;5095097;28;20030;-75
2024/02/04 00:54:12;;;;;;;8.13;6.03;;;;;;;5.15;71.65;99799.91;5095629;28;20035;-75
2024/02/04 00:56:38;;;;;;;8.40;5.75;;;;;;;5.11;71.66;99782.22;5094201;28;20514;-75
2024/02/04 00:59:03;;;;;;;10.20;6.55;;;;;;;5.19;70.78;99786.28;5095687;28;20027;-75
2024/02/04 01:01:29;;;;;;;13.52;6.80;;;;;;;5.32;70.35;99795.91;5099470;28;20032;-75
2024/02/04 01:03:54;;;;;;;16.35;7.75;;;;;;;5.42;70.06;99784.69;5091285;28;20155;-75
2024/02/04 01:06:20;;;;;;;13.55;7.97;;;;;;;5.30;70.00;99796.19;5094055;28;20031;-75
2024/02/04 01:08:45;;;;;;;14.73;8.93;;;;;;;4.86;71.20;99772.16;5087516;28;20389;-75
2024/02/04 01:11:11;;;;;;;15.05;9.05;;;;;;;5.25;70.92;99789.84;5110375;28;20024;-74
2024/02/04 01:13:37;;;;;;;16.17;8.07;;;;;;;5.26;71.09;99794.28;5093668;28;20450;-75
2024/02/04 01:16:02;;;;;;;16.85;8.70;;;;;;;5.37;70.99;99793.06;5090503;28;20031;-75
2024/02/04 01:18:28;;;;;;;29.85;12.63;;;;;;;5.36;71.74;99796.13;5095422;28;20084;-75
2024/02/04 01:20:53;;;;;;;47.40;19.42;;;;;;;5.22;72.19;99788.47;5094736;28;20084;-75
2024/02/04 01:23:19;;;;;;;46.95;15.60;;;;;;;5.05;73.31;99777.81;5094373;28;20535;-74
2024/02/04 01:25:45;;;;;;;41.75;16.02;;;;;;;5.13;73.27;99782.75;5094807;28;20488;-75
2024/02/04 01:28:10;;;;;;;48.85;19.95;;;;;;;5.06;73.08;99763.66;5089810;28;20032;-75
2024/02/04 01:30:37;;;;;;;24.65;11.60;;;;;;;5.11;72.74;99767.50;5107077;28;20028;-74
2024/02/04 01:33:02;;;;;;;19.88;9.57;;;;;;;5.14;72.32;99772.50;5074706;28;20097;-75
2024/02/04 01:35:28;;;;;;;18.00;8.02;;;;;;;4.98;73.29;99760.69;5095592;28;20051;-75
2024/02/04 01:37:53;;;;;;;21.52;10.15;;;;;;;5.04;72.28;99751.22;5103126;28;20023;-74
2024/02/04 01:40:19;;;;;;;14.32;8.18;;;;;;;4.93;72.95;99769.88;5092429;28;20449;-75
2024/02/04 01:42:44;;;;;;;12.73;8.68;;;;;;;4.75;73.77;99754.78;5094859;28;20019;-74
2024/02/04 01:45:10;;;;;;;12.48;7.70;;;;;;;4.88;74.08;99767.97;5109279;28;20035;-74
2024/02/04 01:47:36;;;;;;;55.25;20.25;;;;;;;4.92;74.58;99779.31;5094271;28;20092;-74
2024/02/04 01:50:03;;;;;;;95.45;36.97;;;;;;;4.96;74.47;99788.72;5077301;28;20046;-74
2024/02/04 01:52:30;;;;;;;109.32;38.05;;;;;;;4.87;74.61;99763.56;5093987;28;20476;-75
2024/02/04 01:54:56;;;;;;;91.32;29.25;;;;;;;4.94;73.90;99754.91;5111736;28;20034;-75
2024/02/04 01:57:23;;;;;;;57.85;20.95;;;;;;;4.84;75.02;99755.81;5076723;28;20027;-75
2024/02/04 01:59:51;;;;;;;46.97;16.10;;;;;;;5.07;74.14;99753.41;5092540;28;20065;-79
2024/02/04 02:02:17;;;;;;;28.77;12.93;;;;;;;5.13;73.61;99755.00;5091860;28;20031;-80
2024/02/04 02:04:43;;;;;;;15.00;8.25;;;;;;;5.27;73.50;99762.66;5088942;28;20419;-79
2024/02/04 02:07:09;;;;;;;13.75;6.50;;;;;;;5.32;73.61;99766.19;5087989;28;20063;-79
2024/02/04 02:09:35;;;;;;;14.50;7.35;;;;;;;5.40;73.39;99761.97;5091808;28;20027;-79
2024/02/04 02:12:10;;;;;;;13.35;6.53;;;;;;;5.54;72.27;99764.03;5106461;28;20032;-80
2024/02/04 02:14:39;;;;;;;8.57;5.93;;;;;;;5.53;72.26;99767.94;5072418;28;20456;-80
2024/02/04 02:17:17;;;;;;;12.10;6.80;;;;;;;5.59;72.10;99772.31;5090738;28;20042;-80
2024/02/04 02:20:05;;;;;;;18.73;9.70;;;;;;;5.55;71.84;99774.84;5108826;28;20049;-80
2024/02/04 02:22:47;;;;;;;35.20;14.30;;;;;;;5.60;72.11;99782.28;5103990;28;20031;-80
2024/02/04 02:25:14;;;;;;;24.83;8.90;;;;;;;5.53;71.86;99757.69;5091216;28;20510;-80
2024/02/04 02:27:49;;;;;;;12.43;6.47;;;;;;;5.50;71.49;99769.38;5109511;28;20173;-80
2024/02/04 02:30:16;;;;;;;13.40;6.45;;;;;;;5.53;71.52;99767.94;5109823;28;20465;-81
2024/02/04 02:32:46;;;;;;;15.55;7.93;;;;;;;5.49;71.61;99767.72;5091632;28;20118;-81
2024/02/04 02:35:15;;;;;;;19.92;8.80;;;;;;;5.61;70.93;99765.38;5090024;28;20035;-80
2024/02/04 02:38:05;;;;;;;82.60;27.38;;;;;;;5.61;71.06;99762.59;5106330;28;20035;-80
2024/02/04 02:40:39;;;;;;;167.03;54.80;;;;;;;5.46;71.56;99749.69;5103633;28;20116;-80
2024/02/04 02:43:06;;;;;;;209.35;67.60;;;;;;;5.39;72.34;99756.72;5105701;28;20031;-80
2024/02/04 02:45:32;;;;;;;225.18;72.80;;;;;;;5.30;72.58;99740.72;5090860;28;20122;-80
2024/02/04 02:47:58;;;;;;;191.93;63.47;;;;;;;5.45;72.11;99749.97;5090530;28;20547;-80
2024/02/04 02:50:23;;;;;;;175.23;53.72;;;;;;;5.44;72.45;99738.06;5101554;28;20027;-78
2024/02/04 02:52:49;;;;;;;133.10;43.05;;;;;;;5.42;72.79;99742.25;5099120;28;20408;-80
2024/02/04 02:55:15;;;;;;;173.30;54.28;;;;;;;5.40;72.82;99745.31;5090339;28;20047;-80
2024/02/04 02:57:40;;;;;;;284.90;92.55;;;;;;;5.40;72.75;99739.75;5109318;28;20027;-80
2024/02/04 03:00:06;;;;;;;381.33;129.82;;;;;;;5.57;71.55;99741.25;5109408;28;20047;-80
2024/02/04 03:02:33;;;;;;;234.40;84.57;;;;;;;5.62;71.18;99735.66;5107560;28;20043;-80
2024/02/04 03:04:58;;;;;;;127.88;48.55;;;;;;;5.59;70.70;99739.81;5104284;28;20027;-80
2024/02/04 03:07:24;;;;;;;76.95;28.55;;;;;;;5.44;71.46;99729.75;5088488;28;20023;-78
2024/02/04 03:09:54;;;;;;;36.58;16.13;;;;;;;5.42;71.09;99723.66;5090980;28;20023;-74
2024/02/04 03:12:19;;;;;;;;;;;;;;;5.56;70.80;99739.63;5084479;28;20031;-74
2024/02/04 03:14:45;;;;;;;15.50;7.90;;;;;;;5.39;71.08;99724.25;5103491;28;19964;-75
2024/02/04 03:17:11;;;;;;;18.20;7.93;;;;;;;5.45;70.61;99720.31;5092256;28;20484;-74
2024/02/04 03:19:37;;;;;;;36.10;13.75;;;;;;;5.47;70.44;99743.03;5089010;28;20056;-74
2024/02/04 03:22:02;;;;;;;56.92;23.05;;;;;;;5.38;71.54;99739.22;5072868;28;20483;-74
2024/02/04 03:24:28;;;;;;;108.03;37.20;;;;;;;5.46;70.77;99735.81;5090834;28;20062;-74
2024/02/04 03:26:53;;;;;;;87.68;29.33;;;;;;;5.18;71.52;99712.53;5094387;28;20027;-74
2024/02/04 03:29:20;;;;;;;85.10;28.52;;;;;;;5.20;71.58;99724.16;5101078;28;20077;-74
2024/02/04 03:31:45;;;;;;;60.97;20.50;;;;;;;5.13;71.48;99707.03;5107150;28;20027;-74
2024/02/04 03:34:11;;;;;;;37.90;14.15;;;;;;;4.90;72.40;99707.53;5101945;28;20051;-74
2024/02/04 03:36:37;;;;;;;54.50;21.10;;;;;;;4.93;72.67;99714.44;5092608;28;20497;-74
2024/02/04 03:39:03;;;;;;;66.47;23.52;;;;;;;5.00;72.51;99705.78;5091889;28;20106;-74
2024/02/04 03:41:28;;;;;;;47.13;15.93;;;;;;;4.89;72.81;99703.09;5076695;28;20027;-74
2024/02/04 03:43:55;;;;;;;90.47;31.65;;;;;;;4.95;72.66;99700.28;5092873;28;20031;-74
2024/02/04 03:46:20;;;;;;;98.70;35.95;;;;;;;4.92;72.51;99699.75;5076252;28;20397;-74
2024/02/04 03:48:46;;;;;;;92.20;28.92;;;;;;;5.03;72.33;99697.72;5072201;28;20030;-74
2024/02/04 03:51:16;;;;;;;101.97;32.42;;;;;;;4.99;72.42;99693.03;5087520;28;20019;-74
2024/02/04 03:53:43;;;;;;;64.18;21.15;;;;;;;4.98;72.66;99699.72;5111192;28;20023;-74
2024/02/04 03:56:08;;;;;;;24.55;10.45;;;;;;;4.95;72.85;99711.34;5109559;28;20047;-74
2024/02/04 03:58:34;;;;;;;26.80;8.15;;;;;;;4.91;73.33;99711.13;5092581;28;20069;-74
2024/02/04 04:00:59;;;;;;;51.60;16.60;;;;;;;4.80;73.86;99701.25;5092490;28;20024;-74
2024/02/04 04:03:26;;;;;;;93.07;31.10;;;;;;;4.85;73.46;99690.97;5109972;28;20119;-74
2024/02/04 04:05:53;;;;;;;123.18;44.17;;;;;;;4.84;73.91;99705.94;5092493;28;20050;-74
2024/02/04 04:08:19;;;;;;;99.05;32.70;;;;;;;4.86;74.39;99705.63;5088758;28;20527;-74
2024/02/04 04:10:45;;;;;;;117.68;35.13;;;;;;;5.05;73.96;99698.25;5086339;28;20064;-75
2024/02/04 04:13:10;;;;;;;164.05;59.35;;;;;;;5.12;73.28;99688.75;5077085;28;20024;-75
2024/02/04 04:15:36;;;;;;;183.70;60.10;;;;;;;4.96;74.29;99671.47;5090150;28;20416;-74
2024/02/04 04:18:01;;;;;;;156.30;50.13;;;;;;;5.10;74.47;99683.50;5101983;28;20066;-75
2024/02/04 04:20:27;;;;;;;120.78;43.55;;;;;;;5.18;74.44;99673.72;5090781;28;20036;-75
2024/02/04 04:22:52;;;;;;;104.53;35.63;;;;;;;5.27;74.59;99677.50;5111905;28;20460;-74
2024/02/04 04:25:18;;;;;;;91.72;31.60;;;;;;;5.48;73.63;99666.16;5095731;28;20019;-75
2024/02/04 04:27:44;;;;;;;52.17;21.98;;;;;;;5.67;73.86;99685.66;5114097;28;20039;-74
2024/02/04 04:30:10;;;;;;;33.08;13.15;;;;;;;5.78;73.03;99685.50;5113930;28;20031;-74
2024/02/04 04:32:37;;;;;;;18.08;9.68;;;;;;;5.64;73.28;99663.22;5077195;28;20470;-75
2024/02/04 04:35:02;;;;;;;18.25;7.32;;;;;;;5.58;73.51;99662.44;5081135;28;20475;-75
2024/02/04 04:37:28;;;;;;;16.00;7.32;;;;;;;5.72;73.58;99668.91;5095590;28;20030;-75
2024/02/04 04:39:55;;;;;;;15.15;7.35;;;;;;;5.48;74.66;99660.59;5114058;28;20393;-75
2024/02/04 04:42:21;;;;;;;30.10;11.85;;;;;;;5.50;75.50;99646.44;5092495;28;20088;-74
2024/02/04 04:44:46;;;;;;;34.50;14.27;;;;;;;5.46;76.37;99654.53;5114243;28;20031;-75
2024/02/04 04:47:12;;;;;;;39.50;13.25;;;;;;;5.47;76.41;99643.16;5109276;28;20031;-75
2024/02/04 04:49:37;;;;;;;26.77;12.38;;;;;;;5.53;76.79;99645.84;5082138;28;20097;-74
2024/02/04 04:52:03;;;;;;;55.70;18.88;;;;;;;5.68;76.63;99676.19;5095953;28;20031;-75
2024/02/04 04:54:29;;;;;;;80.97;29.55;;;;;;;5.70;76.09;99662.84;5083190;28;20103;-75
2024/02/04 04:56:54;;;;;;;143.18;42.05;;;;;;;5.63;76.19;99659.59;5095093;28;20075;-75
2024/02/04 04:59:19;;;;;;;239.90;79.68;;;;;;;5.57;76.28;99661.59;5104214;28;20407;-74
2024/02/04 05:01:46;;;;;;;204.35;67.35;;;;;;;5.76;75.78;99674.69;5095108;28;20028;-74
2024/02/04 05:04:12;;;;;;;57.92;20.13;;;;;;;5.89;74.81;99681.44;5112935;28;20046;-75
2024/02/04 05:06:37;;;;;;;28.02;10.10;;;;;;;5.87;74.28;99679.00;5092033;28;20472;-75
2024/02/04 05:09:03;;;;;;;7.07;5.53;;;;;;;5.91;73.61;99679.19;5092433;28;20073;-75
2024/02/04 05:11:28;;;;;;;9.50;4.82;;;;;;;5.92;74.12;99691.16;5094137;28;20031;-74
2024/02/04 05:13:56;;;;;;;5.90;4.13;;;;;;;5.93;73.27;99684.47;5094949;28;20023;-75
2024/02/04 05:16:21;;;;;;;5.68;4.10;;;;;;;6.02;73.11;99694.63;5094929;28;20023;-75
2024/02/04 05:18:46;;;;;;;4.53;3.67;;;;;;;5.98;73.00;99685.22;5094554;28;20043;-74
2024/02/04 05:21:12;;;;;;;7.72;4.05;;;;;;;6.16;72.95;99716.13;5094673;28;20032;-74
2024/02/04 05:23:38;;;;;;;5.60;4.25;;;;;;;6.25;72.78;99711.53;5113591;28;20138;-75
2024/02/04 05:26:06;;;;;;;7.07;5.05;;;;;;;5.92;74.10;99703.09;5112929;28;20578;-75
2024/02/04 05:28:32;;;;;;;9.40;6.80;;;;;;;6.11;73.50;99700.38;5094475;28;20058;-74
2024/02/04 05:30:58;;;;;;;15.98;7.72;;;;;;;6.16;73.77;99714.16;5079518;28;20028;-73
2024/02/04 05:33:23;;;;;;;25.67;8.23;;;;;;;6.08;73.97;99716.78;5107249;28;20034;-73
2024/02/04 05:35:49;;;;;;;16.48;7.63;;;;;;;6.13;74.08;99719.47;5093444;28;20110;-73
2024/02/04 05:38:16;;;;;;;20.73;9.73;;;;;;;6.28;73.72;99738.72;5076600;28;20020;-73
2024/02/04 05:40:41;;;;;;;22.27;9.10;;;;;;;6.34;73.56;99735.88;5111678;28;20553;-73
2024/02/04 05:43:08;;;;;;;24.02;9.48;;;;;;;6.41;72.96;99745.47;5091844;28;20040;-73
2024/02/04 05:45:33;;;;;;;19.23;9.60;;;;;;;6.52;72.53;99746.16;5093159;28;20089;-73
2024/02/04 05:47:59;;;;;;;28.77;11.15;;;;;;;6.56;72.18;99752.78;5098653;28;20439;-73
2024/02/04 05:50:24;;;;;;;26.75;12.15;;;;;;;6.60;72.30;99751.03;5109299;28;20080;-72
2024/02/04 05:52:50;;;;;;;24.75;12.43;;;;;;;6.69;71.82;99753.94;5092280;28;20031;-73
2024/02/04 05:55:15;;;;;;;32.50;12.40;;;;;;;6.62;72.32;99749.91;5092948;28;20633;-72
2024/02/04 05:57:41;;;;;;;17.70;8.52;;;;;;;6.70;71.71;99765.91;5092151;28;20503;-72
2024/02/04 06:00:10;;;;;;;43.72;16.35;;;;;;;6.55;72.23;99753.06;5090083;28;20468;-74
2024/02/04 06:02:36;;;;;;;45.72;19.60;;;;;;;6.53;72.73;99760.88;5106562;28;20387;-72
2024/02/04 06:05:02;;;;;;;28.05;14.02;;;;;;;6.56;73.19;99760.25;5107692;28;20567;-74
2024/02/04 06:07:27;;;;;;;43.55;17.23;;;;;;;6.52;72.58;99754.50;5088612;28;20181;-73
2024/02/04 06:09:56;;;;;;;93.72;39.83;;;;;;;6.54;73.27;99754.19;5103138;28;20028;-73
2024/02/04 06:12:21;;;;;;;71.10;41.17;;;;;;;6.49;73.64;99755.09;5080536;28;20648;-73
2024/02/04 06:14:47;;;;;;;254.70;176.00;;;;;;;6.44;73.75;99744.88;5107781;28;20078;-74
2024/02/04 06:17:13;;;;;;;86.90;46.63;;;;;;;6.40;73.60;99735.50;5106369;28;20028;-73
2024/02/04 06:19:38;;;;;;;162.57;98.10;;;;;;;6.30;74.53;99730.09;5087186;28;20027;-73
2024/02/04 06:22:04;;;;;;;141.27;77.15;;;;;;;6.40;74.40;99724.38;5091064;28;20015;-71
2024/02/04 06:24:29;;;;;;;515.05;300.23;;;;;;;6.38;75.17;99721.09;5110517;28;20095;-72
2024/02/04 06:26:55;;;;;;;245.98;143.60;;;;;;;6.44;75.61;99722.63;5103915;28;20028;-75
2024/02/04 06:29:21;;;;;;;104.55;64.43;;;;;;;6.37;76.25;99713.03;5099102;28;20035;-73
2024/02/04 06:31:46;;;;;;;76.82;35.70;;;;;;;6.46;75.85;99711.22;5072324;28;20205;-74
2024/02/04 06:34:12;;;;;;;50.30;22.92;;;;;;;6.41;76.66;99703.00;5083350;28;20069;-71
2024/02/04 06:36:38;;;;;;;50.92;21.90;;;;;;;6.45;76.91;99709.59;5081792;28;20110;-73
2024/02/04 06:39:03;;;;;;;92.30;32.58;;;;;;;6.48;76.67;99725.66;5085351;28;20035;-75
2024/02/04 06:41:29;;;;;;;165.73;52.90;;;;;;;6.45;77.07;99720.69;5087191;28;20121;-73
2024/02/04 06:43:54;;;;;;;138.18;44.53;;;;;;;6.55;77.70;99720.53;5098916;28;20043;-76
2024/02/04 06:46:26;;;;;;;132.35;46.67;;;;;;;6.62;77.42;99730.44;5088147;28;20037;-73
2024/02/04 06:48:53;;;;;;;104.13;40.90;;;;;;;6.60;78.20;99739.91;5087805;28;20419;-71
2024/02/04 06:51:18;;;;;;;82.90;31.55;;;;;;;6.67;78.38;99733.16;5085141;28;20484;-72
2024/02/04 06:53:44;;;;;;;56.42;22.67;;;;;;;6.79;77.93;99741.84;5092625;28;20027;-73
2024/02/04 06:56:09;;;;;;;51.13;25.67;;;;;;;6.88;77.78;99744.75;5070272;28;20129;-72
2024/02/04 06:58:41;;;;;;;38.60;21.58;;;;;;;6.98;78.05;99750.16;5092074;28;20140;-71
2024/02/04 07:01:06;;;;;;;46.15;23.77;;;;;;;7.13;77.37;99749.06;5108273;28;20099;-71
2024/02/04 07:03:32;;;;;;;47.42;24.98;;;;;;;7.12;78.09;99755.78;5108912;28;20039;-72
2024/02/04 07:06:01;;;;;;;44.75;21.85;;;;;;;7.18;77.43;99758.44;5088412;28;20031;-72
2024/02/04 07:08:27;;;;;;;43.60;22.50;;;;;;;7.16;75.81;99754.03;5098843;28;20039;-73
2024/02/04 07:10:53;;;;;;;38.03;21.95;;;;;;;7.28;75.04;99752.72;5096660;28;20031;-72
2024/02/04 07:13:18;;;;;;;34.83;17.38;;;;;;;7.43;73.36;99768.31;5102942;28;20113;-72
2024/02/04 07:15:44;;;;;;;52.13;23.83;;;;;;;7.52;73.41;99768.41;5099620;28;20039;-70
2024/02/04 07:18:10;;;;;;;45.55;23.85;;;;;;;7.59;72.67;99769.66;5100771;28;20510;-71
2024/02/04 07:20:36;;;;;;;38.00;22.90;;;;;;;7.72;72.63;99773.59;5093981;28;20040;-71
2024/02/04 07:23:01;;;;;;;24.63;14.63;;;;;;;7.82;72.45;99782.88;5097977;28;20506;-71
2024/02/04 07:25:27;;;;;;;19.55;13.50;;;;;;;7.87;72.17;99775.25;5081599;28;20032;-72
2024/02/04 07:27:53;;;;;;;19.23;12.93;;;;;;;8.03;71.71;99782.47;5077123;28;20027;-72
2024/02/04 07:30:20;;;;;;;21.67;13.38;;;;;;;8.18;71.68;99779.34;5097833;28;20027;-71
2024/02/04 07:32:46;;;;;;;23.70;14.90;;;;;;;8.24;71.87;99780.91;5093492;28;20027;-72
2024/02/04 07:35:11;;;;;;;25.75;14.32;;;;;;;8.26;71.88;99788.94;5089770;28;20382;-72
2024/02/04 07:37:37;;;;;;;24.40;17.45;;;;;;;8.34;71.78;99790.19;5092775;28;20035;-72
2024/02/04 07:40:05;;;;;;;19.13;12.55;;;;;;;8.47;71.96;99789.34;5089421;28;20050;-71
2024/02/04 07:42:31;;;;;;;23.63;12.95;;;;;;;8.55;71.81;99790.59;5089919;28;20074;-72
2024/02/04 07:44:56;;;;;;;29.80;14.60;;;;;;;8.75;72.11;99800.44;5093837;28;20429;-72
2024/02/04 07:47:22;;;;;;;52.88;23.38;;;;;;;8.85;73.10;99791.81;5086955;28;20024;-72
2024/02/04 07:49:48;;;;;;;26.40;12.43;;;;;;;9.11;73.39;99787.56;5087561;28;20092;-72
2024/02/04 07:52:14;;;;;;;21.52;12.20;;;;;;;9.47;71.93;99781.09;5082785;28;20020;-72
2024/02/04 07:54:39;;;;;;;25.70;12.77;;;;;;;9.72;70.95;99775.13;5104603;28;20555;-72
2024/02/04 07:57:05;;;;;;;14.68;8.60;;;;;;;10.09;68.76;99775.75;5095956;28;20044;-73
2024/02/04 07:59:30;;;;;;;13.98;7.35;;;;;;;10.21;68.28;99770.34;5092999;28;20024;-73
2024/02/04 08:01:56;;;;;;;22.42;8.32;;;;;;;10.24;69.46;99764.09;5099788;28;20062;-73
2024/02/04 08:04:22;;;;;;;14.85;8.10;;;;;;;10.20;70.11;99759.50;5074539;28;20016;-73
2024/02/04 08:06:47;;;;;;;15.18;7.72;;;;;;;10.27;70.04;99754.25;5089559;28;20028;-73
2024/02/04 08:09:13;;;;;;;16.50;8.43;;;;;;;10.20;69.42;99743.56;5096567;28;20129;-73
2024/02/04 08:11:38;;;;;;;16.88;8.38;;;;;;;10.31;68.56;99748.84;5095982;28;20023;-72
2024/02/04 08:14:04;;;;;;;24.65;9.82;;;;;;;10.38;67.79;99749.19;5092477;28;20043;-72
2024/02/04 08:16:29;;;;;;;13.18;8.75;;;;;;;10.34;68.26;99734.19;5097569;28;20523;-72
2024/02/04 08:18:56;;;;;;;15.90;10.00;;;;;;;10.49;66.54;99736.53;5100476;28;20082;-72
2024/02/04 08:21:21;;;;;;;34.78;20.90;;;;;;;10.51;67.38;99725.88;5082396;28;20028;-72
2024/02/04 08:23:46;;;;;;;32.35;22.05;;;;;;;10.52;67.50;99730.31;5089480;28;20020;-72
2024/02/04 08:26:12;;;;;;;25.73;13.50;;;;;;;10.40;67.79;99727.31;5095492;28;20035;-72
2024/02/04 08:28:38;;;;;;;21.60;10.45;;;;;;;10.43;67.26;99725.84;5102590;28;20023;-71
2024/02/04 08:31:04;;;;;;;15.40;9.20;;;;;;;10.45;68.01;99743.13;5098213;28;20020;-71
2024/02/04 08:33:29;;;;;;;16.55;10.27;;;;;;;10.55;66.80;99722.41;5070811;28;20024;-71
2024/02/04 08:35:54;;;;;;;17.05;8.52;;;;;;;10.47;67.58;99733.25;5074601;28;20055;-72
2024/02/04 08:38:20;;;;;;;15.75;9.43;;;;;;;10.53;67.79;99733.91;5096594;28;20531;-71
2024/02/04 08:40:45;;;;;;;13.07;8.95;;;;;;;10.59;67.17;99738.22;5087581;28;20415;-73
2024/02/04 08:43:11;;;;;;;10.45;7.07;;;;;;;10.60;66.04;99730.63;5083278;28;20024;-72
2024/02/04 08:45:36;;;;;;;24.10;11.48;;;;;;;10.64;67.00;99728.81;5073035;28;20058;-72
2024/02/04 08:48:02;;;;;;;9.02;6.82;;;;;;;10.66;66.98;99732.13;5076315;28;20023;-72
2024/02/04 08:50:28;;;;;;;11.52;7.80;;;;;;;10.70;66.50;99721.91;5088539;28;20102;-72
2024/02/04 08:52:54;;;;;;;9.98;6.55;;;;;;;10.68;66.47;99718.63;5106648;28;20431;-72
2024/02/04 08:55:19;;;;;;;25.60;11.65;;;;;;;10.75;66.57;99721.75;5095413;28;20040;-72
2024/02/04 08:57:45;;;;;;;13.63;8.13;;;;;;;10.81;65.72;99722.41;5105557;28;20359;-72
2024/02/04 09:00:14;;;;;;;17.25;8.65;;;;;;;10.90;65.58;99725.19;5106591;28;20756;-72
2024/02/04 09:02:40;;;;;;;14.25;6.68;;;;;;;10.84;65.26;99721.75;5112067;28;20023;-72
2024/02/04 09:05:06;;;;;;;21.05;9.07;;;;;;;10.87;64.79;99723.88;5105662;28;20054;-72
2024/02/04 09:07:31;;;;;;;14.48;8.70;;;;;;;10.97;63.94;99719.88;5095611;28;20031;-72
2024/02/04 09:09:57;;;;;;;37.70;9.70;;;;;;;10.97;63.79;99728.28;5085097;28;20027;-72
2024/02/04 09:12:22;;;;;;;10.15;6.88;;;;;;;11.03;63.72;99732.56;5093564;28;20038;-72
2024/02/04 09:14:48;;;;;;;12.55;6.32;;;;;;;11.15;63.41;99717.88;5110591;28;20091;-72
2024/02/04 09:17:13;;;;;;;15.80;6.88;;;;;;;11.24;63.47;99715.09;5112030;28;20031;-72
2024/02/04 09:19:39;;;;;;;33.22;6.47;;;;;;;11.40;63.06;99714.53;5092729;28;20035;-72
2024/02/04 09:22:05;;;;;;;10.60;5.93;;;;;;;11.38;62.65;99712.88;5111895;28;20026;-72
2024/02/04 09:24:30;;;;;;;10.30;5.60;;;;;;;11.46;62.79;99710.38;5094747;28;20155;-72
2024/02/04 09:26:56;;;;;;;14.45;6.05;;;;;;;11.55;63.13;99699.16;5072833;28;20088;-72
2024/02/04 09:29:21;;;;;;;12.38;6.82;;;;;;;11.69;61.97;99698.91;5086467;28;20177;-72
2024/02/04 09:31:49;;;;;;;17.95;10.35;;;;;;;11.75;62.47;99700.38;5109279;28;20031;-73
2024/02/04 09:34:14;;;;;;;25.02;12.30;;;;;;;11.88;62.32;99688.09;5110510;28;20441;-72
2024/02/04 09:36:40;;;;;;;18.05;8.93;;;;;;;11.97;61.23;99688.06;5091941;28;20028;-73
2024/02/04 09:39:06;;;;;;;12.93;7.75;;;;;;;12.08;60.32;99683.72;5089682;28;20411;-72
2024/02/04 09:41:31;;;;;;;22.02;11.25;;;;;;;12.27;59.79;99684.41;5077558;28;20064;-71
2024/02/04 09:43:59;;;;;;;21.17;11.77;;;;;;;12.38;59.75;99682.84;5081548;28;20045;-73
2024/02/04 09:46:25;;;;;;;18.67;11.30;;;;;;;12.50;59.47;99682.91;5089956;28;20100;-72
2024/02/04 09:48:52;;;;;;;15.02;7.55;;;;;;;12.65;59.64;99680.63;5093473;28;20032;-71
2024/02/04 09:51:17;;;;;;;13.23;6.57;;;;;;;12.90;57.29;99675.13;5074968;28;20119;-71
2024/02/04 09:53:51;;;;;;;14.75;7.80;;;;;;;12.99;57.08;99673.03;5078613;28;20031;-74
2024/02/04 09:56:17;;;;;;;20.98;9.95;;;;;;;13.08;57.63;99677.75;5087351;28;20119;-72
2024/02/04 09:58:43;;;;;;;11.13;5.70;;;;;;;13.09;55.81;99679.41;5101906;28;20056;-74
2024/02/04 10:01:11;;;;;;;10.68;5.25;;;;;;;13.12;55.90;99678.69;5109327;28;20062;-73
2024/02/04 10:03:37;;;;;;;7.50;4.55;;;;;;;13.22;53.07;99677.44;5090779;28;20035;-71
2024/02/04 10:06:03;;;;;;;9.85;4.28;;;;;;;13.17;52.46;99672.88;5090719;28;20047;-73
2024/02/04 10:08:28;;;;;;;7.97;3.53;;;;;;;13.12;53.46;99682.34;5090839;28;20047;-73
2024/02/04 10:10:54;;;;;;;5.10;3.85;;;;;;;13.15;53.68;99684.44;5091712;28;20031;-71
2024/02/04 10:13:20;;;;;;;6.32;4.30;;;;;;;13.12;53.14;99679.53;5106681;28;20027;-72
2024/02/04 10:15:47;;;;;;;5.72;3.95;;;;;;;13.11;53.45;99682.69;5097111;28;20385;-72
2024/02/04 10:18:13;;;;;;;4.45;3.15;;;;;;;13.14;52.14;99679.16;5109204;28;20020;-72
2024/02/04 10:20:38;;;;;;;20.58;5.93;;;;;;;13.11;52.39;99700.34;5107923;28;20863;-72
2024/02/04 10:23:03;;;;;;;6.22;4.10;;;;;;;13.14;52.24;99693.22;5109252;28;20023;-70
2024/02/04 10:25:29;;;;;;;8.32;4.20;;;;;;;13.06;52.68;99684.53;5109652;28;20035;-69
2024/02/04 10:27:55;;;;;;;7.72;3.70;;;;;;;13.08;52.87;99687.00;5090780;28;20028;-68
2024/02/04 10:30:21;;;;;;;5.00;3.35;;;;;;;13.12;52.76;99695.53;5090730;28;20042;-70
2024/02/04 10:32:56;;;;;;;6.38;3.35;;;;;;;13.12;53.13;99703.97;5098293;28;20710;-70
2024/02/04 10:35:23;;;;;;;8.00;4.43;;;;;;;13.12;53.06;99696.38;5108921;28;20023;-69
2024/02/04 10:37:49;;;;;;;8.27;5.30;;;;;;;13.15;52.65;99689.22;5090830;28;20110;-71
2024/02/04 10:40:15;;;;;;;7.03;4.15;;;;;;;13.22;52.60;99689.50;5107704;28;20038;-70
2024/02/04 10:42:43;;;;;;;18.05;7.35;;;;;;;13.36;51.73;99699.56;5089861;28;20032;-70
2024/02/04 10:45:09;;;;;;;10.68;6.22;;;;;;;13.49;51.16;99690.03;5108794;28;20035;-72
2024/02/04 10:47:38;;;;;;;13.55;4.93;;;;;;;13.47;50.83;99690.41;5089763;28;20035;-72
2024/02/04 10:50:04;;;;;;;8.90;4.40;;;;;;;13.46;50.39;99685.94;5086131;28;20042;-72
2024/02/04 10:52:42;;;;;;;7.28;5.18;;;;;;;13.47;50.81;99683.94;5090303;28;20035;-73
2024/02/04 10:55:10;;;;;;;4.57;2.70;;;;;;;13.47;50.73;99683.94;5109517;28;20627;-75
2024/02/04 10:57:37;;;;;;;7.45;5.40;;;;;;;13.46;50.61;99674.72;5091830;28;20028;-72
2024/02/04 11:00:08;;;;;;;11.43;3.13;;;;;;;13.45;50.00;99675.03;5109673;28;20051;-74
2024/02/04 11:02:35;;;;;;;5.70;3.60;;;;;;;13.47;50.03;99678.31;5090868;28;20484;-75
2024/02/04 11:05:03;;;;;;;15.50;6.35;;;;;;;13.49;51.33;99664.75;5090384;28;20044;-73
2024/02/04 11:07:32;;;;;;;8.82;4.32;;;;;;;13.50;50.87;99665.56;5109736;28;20038;-74
2024/02/04 11:09:57;;;;;;;13.02;4.07;;;;;;;13.52;51.44;99674.47;5088609;28;20104;-74
2024/02/04 11:12:25;;;;;;;8.93;4.13;;;;;;;13.42;51.14;99668.09;5107238;28;20024;-77
2024/02/04 11:14:55;;;;;;;7.55;3.45;;;;;;;13.42;51.14;99670.91;5105223;28;20106;-77
2024/02/04 11:17:21;;;;;;;6.95;5.15;;;;;;;13.38;51.61;99669.97;5087083;28;20019;-78
2024/02/04 11:20:16;;;;;;;13.27;6.28;;;;;;;13.42;51.96;99670.91;5109089;28;20066;-75
2024/02/04 11:23:00;;;;;;;12.88;5.22;;;;;;;13.46;52.19;99657.03;5077546;28;20024;-76